createdAt,value
2019-05-06T00:01:00.165Z,1.5
2019-05-06T00:02:00.947Z,1.5
2019-05-06T00:03:01.707Z,1.5
2019-05-06T00:04:05.686Z,1.5
2019-05-06T00:05:06.456Z,1.5
2019-05-06T00:06:07.197Z,1.5
2019-05-06T00:07:07.983Z,1.5
2019-05-06T00:08:08.741Z,1.5
2019-05-06T00:09:09.494Z,1.5
2019-05-06T00:10:10.262Z,1.5
2019-05-06T00:11:11.018Z,1.5
2019-05-06T00:12:11.815Z,1.5
2019-05-06T00:13:14.937Z,1.5
2019-05-06T00:14:18.471Z,1.5
2019-05-06T00:15:19.232Z,1.5
2019-05-06T00:16:19.998Z,1.4
2019-05-06T00:17:20.812Z,1.5
2019-05-06T00:18:21.577Z,1.5
2019-05-06T00:19:24.479Z,1.5
2019-05-06T00:20:25.459Z,1.4
2019-05-06T00:21:26.226Z,1.5
2019-05-06T00:22:27.017Z,1.4
2019-05-06T00:23:27.778Z,1.4
2019-05-06T00:24:31.306Z,1.4
2019-05-06T00:25:32.100Z,1.4
2019-05-06T00:26:35.461Z,1.3
2019-05-06T00:27:36.247Z,1.4
2019-05-06T00:28:37.026Z,1.4
2019-05-06T00:29:37.784Z,1.4
2019-05-06T00:30:38.554Z,1.5
2019-05-06T00:31:39.306Z,1.4
2019-05-06T00:32:40.105Z,1.5
2019-05-06T00:33:40.873Z,1.5
2019-05-06T00:34:46.402Z,1.5
2019-05-06T00:35:47.174Z,1.5
2019-05-06T00:36:47.929Z,1.6
2019-05-06T00:37:48.729Z,1.6
2019-05-06T00:39:49.985Z,1.6
2019-05-06T00:40:50.756Z,1.6
2019-05-06T00:41:51.513Z,1.5
2019-05-06T00:42:54.918Z,1.5
2019-05-06T00:44:58.952Z,1.5
2019-05-06T00:45:59.707Z,1.5
2019-05-06T00:47:00.475Z,1.5
2019-05-06T00:48:01.272Z,1.5
2019-05-06T00:49:04.187Z,1.5
2019-05-06T00:50:04.981Z,1.6
2019-05-06T00:51:05.743Z,1.5
2019-05-06T00:52:06.503Z,1.5
2019-05-06T00:54:07.794Z,1.6
2019-05-06T00:56:14.699Z,1.6
2019-05-06T00:57:15.451Z,1.6
2019-05-06T00:58:16.234Z,1.6
2019-05-06T00:59:17.001Z,1.6
2019-05-06T01:00:17.755Z,1.6
2019-05-06T01:02:30.793Z,1.6
2019-05-06T01:03:31.569Z,1.6
2019-05-06T01:04:34.938Z,1.6
2019-05-06T01:05:38.467Z,1.6
2019-05-06T01:06:39.251Z,1.6
2019-05-06T01:07:40.010Z,1.6
2019-05-06T01:08:40.782Z,1.6
2019-05-06T01:09:43.733Z,1.6
2019-05-06T01:10:45.640Z,1.6
2019-05-06T01:11:46.416Z,1.7
2019-05-06T01:12:47.174Z,1.7
2019-05-06T01:13:47.949Z,1.7
2019-05-06T01:14:48.718Z,1.7
2019-05-06T01:15:55.471Z,1.7
2019-05-06T01:16:56.232Z,1.7
2019-05-06T01:17:57.008Z,1.7
2019-05-06T01:18:57.810Z,1.7
2019-05-06T01:19:58.575Z,1.7
2019-05-06T01:20:59.338Z,1.7
2019-05-06T01:22:00.094Z,1.7
2019-05-06T01:23:00.862Z,1.6
2019-05-06T01:24:03.779Z,1.6
2019-05-06T01:25:04.832Z,1.6
2019-05-06T01:26:06.369Z,1.6
2019-05-06T01:27:07.139Z,1.6
2019-05-06T01:28:07.909Z,1.5
2019-05-06T01:29:08.696Z,1.5
2019-05-06T01:30:14.426Z,1.6
2019-05-06T01:31:15.183Z,1.6
2019-05-06T01:32:15.948Z,1.5
2019-05-06T01:33:18.726Z,1.5
2019-05-06T01:34:19.499Z,1.6
2019-05-06T01:35:20.273Z,1.5
2019-05-06T01:36:25.640Z,1.5
2019-05-06T01:37:28.277Z,1.5
2019-05-06T01:38:29.034Z,1.5
2019-05-06T01:39:29.816Z,1.5
2019-05-06T01:40:30.577Z,1.4
2019-05-06T01:41:31.330Z,1.5
2019-05-06T01:42:35.130Z,1.5
2019-05-06T01:43:35.891Z,1.4
2019-05-06T01:44:36.685Z,1.5
2019-05-06T01:45:37.446Z,1.4
2019-05-06T01:46:38.992Z,1.4
2019-05-06T01:47:39.758Z,1.4
2019-05-06T01:48:40.516Z,1.4
2019-05-06T01:49:41.299Z,1.4
2019-05-06T01:50:42.064Z,1.4
2019-05-06T01:51:44.985Z,1.5
2019-05-06T01:52:45.734Z,1.4
2019-05-06T01:53:46.497Z,1.5
2019-05-06T01:54:47.295Z,1.5
2019-05-06T01:55:48.046Z,1.5
2019-05-06T01:56:53.661Z,1.5
2019-05-06T01:57:55.273Z,1.5
2019-05-06T01:58:56.037Z,1.5
2019-05-06T01:59:56.820Z,1.5
2019-05-06T02:02:04.658Z,1.5
2019-05-06T02:03:05.414Z,1.5
2019-05-06T02:04:06.169Z,1.5
2019-05-06T02:05:06.955Z,1.5
2019-05-06T02:06:07.708Z,1.5
2019-05-06T02:07:11.252Z,1.5
2019-05-06T02:08:14.117Z,1.5
2019-05-06T02:09:14.880Z,1.5
2019-05-06T02:10:15.674Z,1.5
2019-05-06T02:11:16.434Z,1.5
2019-05-06T02:12:17.208Z,1.5
2019-05-06T02:13:17.970Z,1.4
2019-05-06T02:14:18.734Z,1.4
2019-05-06T02:15:19.526Z,1.4
2019-05-06T02:16:20.282Z,1.4
2019-05-06T02:17:25.024Z,1.5
2019-05-06T02:18:25.956Z,1.5
2019-05-06T02:19:26.723Z,1.5
2019-05-06T02:20:27.520Z,1.5
2019-05-06T02:21:28.278Z,1.5
2019-05-06T02:22:29.046Z,1.5
2019-05-06T02:24:30.314Z,1.5
2019-05-06T02:25:31.095Z,1.5
2019-05-06T02:26:31.856Z,1.5
2019-05-06T02:27:35.570Z,1.4
2019-05-06T02:28:36.325Z,1.4
2019-05-06T02:29:37.088Z,1.5
2019-05-06T02:30:37.873Z,1.4
2019-05-06T02:31:38.637Z,1.5
2019-05-06T02:33:39.887Z,1.4
2019-05-06T02:34:40.656Z,1.5
2019-05-06T02:35:41.457Z,1.4
2019-05-06T02:36:45.381Z,1.4
2019-05-06T02:37:49.234Z,1.4
2019-05-06T02:38:56.402Z,1.4
2019-05-06T02:40:57.674Z,1.3
2019-05-06T02:41:58.457Z,1.3
2019-05-06T02:42:59.207Z,1.4
2019-05-06T02:44:04.336Z,1.4
2019-05-06T02:45:05.101Z,1.4
2019-05-06T02:46:05.875Z,1.4
2019-05-06T02:48:14.585Z,1.4
2019-05-06T02:49:15.353Z,1.4
2019-05-06T02:50:16.118Z,1.4
2019-05-06T02:51:16.894Z,1.4
2019-05-06T02:52:17.671Z,1.4
2019-05-06T02:53:18.436Z,1.4
2019-05-06T02:54:19.193Z,1.4
2019-05-06T02:55:19.963Z,1.4
2019-05-06T02:56:23.682Z,1.4
2019-05-06T02:57:24.853Z,1.4
2019-05-06T02:58:26.555Z,1.4
2019-05-06T02:59:27.316Z,1.4
2019-05-06T03:00:28.075Z,1.4
2019-05-06T03:01:28.860Z,1.4
2019-05-06T03:02:48.313Z,1.4
2019-05-06T03:03:49.447Z,1.4
2019-05-06T03:04:53.565Z,1.5
2019-05-06T03:05:54.310Z,1.5
2019-05-06T03:06:55.076Z,1.5
2019-05-06T03:07:58.423Z,1.4
2019-05-06T03:09:03.960Z,1.4
2019-05-06T03:10:04.978Z,1.4
2019-05-06T03:11:05.745Z,1.4
2019-05-06T03:12:06.526Z,1.4
2019-05-06T03:13:07.309Z,1.5
2019-05-06T03:14:08.057Z,1.5
2019-05-06T03:15:08.815Z,1.5
2019-05-06T03:16:09.579Z,1.4
2019-05-06T03:17:10.389Z,1.4
2019-05-06T03:18:15.716Z,1.4
2019-05-06T03:19:17.252Z,1.4
2019-05-06T03:20:18.026Z,1.4
2019-05-06T03:21:18.797Z,1.4
2019-05-06T03:22:19.587Z,1.4
2019-05-06T03:23:24.119Z,1.4
2019-05-06T03:24:24.878Z,1.3
2019-05-06T03:25:25.636Z,1.4
2019-05-06T03:26:26.399Z,1.4
2019-05-06T03:27:27.178Z,1.3
2019-05-06T03:28:33.725Z,1.3
2019-05-06T03:29:37.270Z,1.3
2019-05-06T03:30:38.026Z,1.3
2019-05-06T03:31:38.785Z,1.3
2019-05-06T03:34:05.576Z,1.4
2019-05-06T03:37:54.331Z,1.4
2019-05-06T03:38:55.085Z,1.5
2019-05-06T03:39:55.877Z,1.5
2019-05-06T03:40:56.633Z,1.5
2019-05-06T03:41:57.386Z,1.4
2019-05-06T03:42:58.178Z,1.5
2019-05-06T03:43:58.937Z,1.5
2019-05-06T03:44:59.703Z,1.5
2019-05-06T03:46:00.481Z,1.4
2019-05-06T03:47:06.505Z,1.5
2019-05-06T03:48:08.046Z,1.5
2019-05-06T03:49:08.816Z,1.5
2019-05-06T03:50:09.571Z,1.5
2019-05-06T03:51:14.375Z,1.5
2019-05-06T03:52:15.143Z,1.5
2019-05-06T03:53:15.945Z,1.5
2019-05-06T03:54:16.706Z,1.5
2019-05-06T03:55:17.477Z,1.5
2019-05-06T03:56:24.275Z,1.5
2019-05-06T03:57:25.037Z,1.5
2019-05-06T03:58:28.751Z,1.4
2019-05-06T03:59:29.524Z,1.4
2019-05-06T04:00:34.097Z,1.4
2019-05-06T04:02:43.783Z,1.4
2019-05-06T04:03:57.604Z,1.4
2019-05-06T04:04:58.352Z,1.4
2019-05-06T04:05:59.118Z,1.4
2019-05-06T04:08:04.646Z,1.4
2019-05-06T04:10:08.686Z,1.5
2019-05-06T04:11:09.458Z,1.5
2019-05-06T04:12:13.317Z,1.5
2019-05-06T04:13:14.316Z,1.5
2019-05-06T04:14:15.107Z,1.5
2019-05-06T04:15:15.877Z,1.5
2019-05-06T04:17:17.154Z,1.5
2019-05-06T04:18:17.944Z,1.5
2019-05-06T04:19:24.675Z,1.5
2019-05-06T04:20:25.453Z,1.5
2019-05-06T04:21:26.204Z,1.5
2019-05-06T04:22:26.956Z,1.5
2019-05-06T04:23:27.720Z,1.6
2019-05-06T04:24:28.518Z,1.6
2019-05-06T04:25:29.280Z,1.6
2019-05-06T04:26:32.901Z,1.6
2019-05-06T04:27:34.389Z,1.6
2019-05-06T04:28:35.213Z,1.6
2019-05-06T04:29:36.780Z,1.6
2019-05-06T04:30:37.537Z,1.6
2019-05-06T04:31:38.306Z,1.6
2019-05-06T04:32:39.064Z,1.6
2019-05-06T04:33:39.837Z,1.6
2019-05-06T04:34:43.677Z,1.6
2019-05-06T04:35:44.441Z,1.6
2019-05-06T04:36:45.200Z,1.6
2019-05-06T04:37:45.967Z,1.6
2019-05-06T04:38:46.738Z,1.6
2019-05-06T04:39:54.238Z,1.6
2019-05-06T04:40:55.122Z,1.6
2019-05-06T04:41:55.895Z,1.6
2019-05-06T04:42:56.660Z,1.7
2019-05-06T04:43:57.437Z,1.7
2019-05-06T04:44:58.226Z,1.7
2019-05-06T04:45:58.985Z,1.7
2019-05-06T04:46:59.738Z,1.7
2019-05-06T04:48:05.960Z,1.7
2019-05-06T04:49:15.417Z,1.7
2019-05-06T04:50:16.948Z,1.7
2019-05-06T04:51:17.705Z,1.7
2019-05-06T04:52:18.469Z,1.7
2019-05-06T04:53:19.226Z,1.8
2019-05-06T04:54:19.987Z,1.8
2019-05-06T04:55:26.592Z,1.7
2019-05-06T04:56:27.350Z,1.8
2019-05-06T04:57:28.104Z,1.8
2019-05-06T04:58:28.875Z,1.8
2019-05-06T04:59:32.406Z,1.8
2019-05-06T05:00:36.987Z,1.8
2019-05-06T05:01:37.741Z,1.8
2019-05-06T05:02:38.517Z,1.8
2019-05-06T05:03:39.262Z,1.8
2019-05-06T05:04:43.073Z,1.8
2019-05-06T05:05:45.722Z,1.8
2019-05-06T05:06:46.487Z,1.8
2019-05-06T05:07:47.250Z,1.9
2019-05-06T05:08:48.014Z,1.9
2019-05-06T05:09:48.796Z,1.9
2019-05-06T05:10:53.831Z,1.9
2019-05-06T05:11:54.593Z,1.9
2019-05-06T05:12:55.360Z,1.9
2019-05-06T05:13:56.133Z,2
2019-05-06T05:14:56.901Z,2
2019-05-06T05:15:57.692Z,2
2019-05-06T05:16:58.453Z,2
2019-05-06T05:17:59.218Z,2
2019-05-06T05:18:59.995Z,2
2019-05-06T05:20:03.220Z,2
2019-05-06T05:21:17.197Z,2
2019-05-06T05:22:17.959Z,2.1
2019-05-06T05:23:18.742Z,2.1
2019-05-06T05:24:19.506Z,2.1
2019-05-06T05:25:22.018Z,2.1
2019-05-06T05:26:23.247Z,2.1
2019-05-06T05:27:24.010Z,2.1
2019-05-06T05:28:24.770Z,2.1
2019-05-06T05:29:25.528Z,2.2
2019-05-06T05:30:26.293Z,2.2
2019-05-06T05:31:27.851Z,2.2
2019-05-06T05:32:28.615Z,2.2
2019-05-06T05:33:29.373Z,2.2
2019-05-06T05:34:43.360Z,2.2
2019-05-06T05:35:44.325Z,2.2
2019-05-06T05:36:45.094Z,2.2
2019-05-06T05:37:45.851Z,2.2
2019-05-06T05:38:46.660Z,2.2
2019-05-06T05:39:47.408Z,2.2
2019-05-06T05:40:48.174Z,2.2
2019-05-06T05:41:53.623Z,2.2
2019-05-06T05:42:54.390Z,2.2
2019-05-06T05:43:55.148Z,2.2
2019-05-06T05:44:55.903Z,2.2
2019-05-06T05:45:56.669Z,2.2
2019-05-06T05:46:57.452Z,2.2
2019-05-06T05:47:58.222Z,2.2
2019-05-06T05:48:58.981Z,2.2
2019-05-06T05:52:05.349Z,2.2
2019-05-06T05:53:06.099Z,2.2
2019-05-06T05:54:06.872Z,2.2
2019-05-06T05:55:07.639Z,2.2
2019-05-06T05:56:08.401Z,2.1
2019-05-06T05:57:09.178Z,2.1
2019-05-06T05:58:13.701Z,2.1
2019-05-06T06:01:15.459Z,2.1
2019-05-06T06:02:19.021Z,2.1
2019-05-06T06:03:21.944Z,2.1
2019-05-06T06:04:23.147Z,2.1
2019-05-06T06:05:23.929Z,2.1
2019-05-06T06:06:24.695Z,2.1
2019-05-06T06:07:29.142Z,2.1
2019-05-06T06:08:32.882Z,2.2
2019-05-06T06:09:34.106Z,2.2
2019-05-06T06:10:34.875Z,2.3
2019-05-06T06:11:35.657Z,2.2
2019-05-06T06:12:39.205Z,2.2
2019-05-06T06:13:39.966Z,2.2
2019-05-06T06:15:48.336Z,2.3
2019-05-06T06:16:49.104Z,2.4
2019-05-06T06:17:52.416Z,2.4
2019-05-06T06:18:53.145Z,2.4
2019-05-06T06:19:54.073Z,2.4
2019-05-06T06:20:54.849Z,2.4
2019-05-06T06:21:55.598Z,2.5
2019-05-06T06:22:59.160Z,2.4
2019-05-06T06:23:59.915Z,2.4
2019-05-06T06:25:05.123Z,2.5
2019-05-06T06:26:08.891Z,2.6
2019-05-06T06:27:09.667Z,2.6
2019-05-06T06:28:12.512Z,2.7
2019-05-06T06:29:13.381Z,2.7
2019-05-06T06:30:14.097Z,2.7
2019-05-06T06:31:14.857Z,2.7
2019-05-06T06:32:15.634Z,2.7
2019-05-06T06:33:19.195Z,2.8
2019-05-06T06:34:22.103Z,2.8
2019-05-06T06:35:23.551Z,2.9
2019-05-06T06:36:24.308Z,2.9
2019-05-06T06:37:25.077Z,2.8
2019-05-06T06:38:26.017Z,2.8
2019-05-06T06:39:26.773Z,2.8
2019-05-06T06:40:27.558Z,2.8
2019-05-06T06:41:28.329Z,2.9
2019-05-06T06:42:29.092Z,2.9
2019-05-06T06:43:34.719Z,2.9
2019-05-06T06:44:35.475Z,2.9
2019-05-06T06:45:36.237Z,2.9
2019-05-06T06:46:37.003Z,2.9
2019-05-06T06:47:37.767Z,2.9
2019-05-06T06:48:38.555Z,2.9
2019-05-06T06:49:39.323Z,2.9
2019-05-06T06:50:40.097Z,3
2019-05-06T06:51:43.277Z,3
2019-05-06T06:52:44.056Z,3
2019-05-06T06:53:47.626Z,3
2019-05-06T06:54:48.365Z,3
2019-05-06T06:55:49.127Z,3
2019-05-06T06:57:09.799Z,3
2019-05-06T06:58:13.145Z,3
2019-05-06T06:59:13.942Z,2.9
2019-05-06T07:00:14.701Z,2.9
2019-05-06T07:01:15.465Z,2.8
2019-05-06T07:02:16.237Z,2.9
2019-05-06T07:03:16.994Z,2.8
2019-05-06T07:04:23.815Z,2.9
2019-05-06T07:05:29.205Z,2.9
2019-05-06T07:06:29.973Z,2.8
2019-05-06T07:07:48.077Z,2.8
2019-05-06T07:08:48.839Z,2.9
2019-05-06T07:09:49.609Z,2.9
2019-05-06T07:10:52.389Z,2.9
2019-05-06T07:11:53.321Z,2.9
2019-05-06T07:12:54.084Z,2.9
2019-05-06T07:13:54.841Z,2.8
2019-05-06T07:14:56.399Z,2.7
2019-05-06T07:15:57.167Z,2.7
2019-05-06T07:16:57.939Z,2.7
2019-05-06T07:17:58.702Z,2.8
2019-05-06T07:18:59.473Z,2.8
2019-05-06T07:20:02.666Z,2.8
2019-05-06T07:21:06.938Z,2.8
2019-05-06T07:22:07.867Z,2.8
2019-05-06T07:23:08.630Z,2.8
2019-05-06T07:24:09.390Z,2.8
2019-05-06T07:25:13.560Z,2.8
2019-05-06T07:26:14.313Z,2.8
2019-05-06T07:27:15.080Z,2.9
2019-05-06T07:28:15.853Z,2.9
2019-05-06T07:29:27.086Z,2.9
2019-05-06T07:30:27.879Z,2.9
2019-05-06T07:31:28.649Z,3
2019-05-06T07:33:29.900Z,3.1
2019-05-06T07:34:32.824Z,3.1
2019-05-06T07:35:44.259Z,3.2
2019-05-06T07:36:45.017Z,3.2
2019-05-06T07:37:45.793Z,3.2
2019-05-06T07:38:46.559Z,3.2
2019-05-06T07:39:47.314Z,3.3
2019-05-06T07:40:48.111Z,3.3
2019-05-06T07:41:48.896Z,3.4
2019-05-06T07:43:52.383Z,3.4
2019-05-06T07:44:53.705Z,3.5
2019-05-06T07:45:57.300Z,3.6
2019-05-06T07:46:58.057Z,3.7
2019-05-06T07:47:58.823Z,3.8
2019-05-06T07:48:59.596Z,3.8
2019-05-06T07:51:03.817Z,4
2019-05-06T07:52:04.583Z,4.1
2019-05-06T07:53:05.337Z,4.2
2019-05-06T07:55:06.620Z,4.4
2019-05-06T07:56:13.427Z,4.6
2019-05-06T07:57:14.183Z,4.8
2019-05-06T07:58:14.950Z,4.9
2019-05-06T07:59:15.724Z,5.1
2019-05-06T08:00:16.484Z,5.3
2019-05-06T08:01:17.295Z,5.5
2019-05-06T08:02:18.051Z,5.6
2019-05-06T08:03:18.817Z,5.8
2019-05-06T08:04:19.581Z,5.9
2019-05-06T08:05:22.322Z,6.2
2019-05-06T08:06:29.291Z,6.3
2019-05-06T08:07:30.057Z,6.5
2019-05-06T08:08:34.390Z,6.6
2019-05-06T08:09:35.240Z,6.8
2019-05-06T08:10:36.009Z,6.9
2019-05-06T08:11:36.800Z,6.9
2019-05-06T08:12:37.570Z,7
2019-05-06T08:13:38.336Z,7
2019-05-06T08:14:39.088Z,7.1
2019-05-06T08:15:41.894Z,7.1
2019-05-06T08:16:45.953Z,7.3
2019-05-06T08:17:46.718Z,7.4
2019-05-06T08:18:47.476Z,7.6
2019-05-06T08:19:48.241Z,7.9
2019-05-06T08:20:49.000Z,8
2019-05-06T08:22:56.951Z,8
2019-05-06T08:23:57.758Z,8.1
2019-05-06T08:24:58.481Z,8.1
2019-05-06T08:26:17.905Z,8.2
2019-05-06T08:27:23.437Z,8.2
2019-05-06T08:28:44.425Z,8.3
2019-05-06T08:29:45.386Z,8.3
2019-05-06T08:30:46.148Z,8.3
2019-05-06T08:31:46.939Z,8.5
2019-05-06T08:32:47.693Z,8.5
2019-05-06T08:33:48.458Z,8.6
2019-05-06T08:34:49.240Z,8.6
2019-05-06T08:35:50.001Z,8.5
2019-05-06T08:36:53.118Z,8.5
2019-05-06T08:37:54.881Z,8.5
2019-05-06T08:38:55.656Z,8.5
2019-05-06T08:39:56.421Z,8.5
2019-05-06T08:40:57.181Z,8.6
2019-05-06T08:41:57.954Z,8.6
2019-05-06T08:42:58.729Z,8.5
2019-05-06T08:43:59.535Z,8.4
2019-05-06T08:45:03.224Z,8.4
2019-05-06T08:46:07.378Z,8.3
2019-05-06T08:47:10.548Z,8.2
2019-05-06T08:48:16.715Z,8
2019-05-06T08:49:17.475Z,8
2019-05-06T08:50:18.239Z,8
2019-05-06T08:51:19.013Z,7.9
2019-05-06T08:52:21.327Z,7.6
2019-05-06T08:53:24.923Z,7.7
2019-05-06T08:54:25.689Z,7.9
2019-05-06T08:55:26.453Z,8.1
2019-05-06T08:56:27.215Z,8.1
2019-05-06T08:57:27.996Z,8.2
2019-05-06T08:58:33.321Z,8.2
2019-05-06T08:59:34.075Z,8.3
2019-05-06T09:00:34.838Z,8.4
2019-05-06T09:01:35.598Z,8.3
2019-05-06T09:02:36.362Z,8.2
2019-05-06T09:03:37.145Z,8.1
2019-05-06T09:04:37.907Z,8.1
2019-05-06T09:05:38.683Z,7.9
2019-05-06T09:06:39.453Z,7.7
2019-05-06T09:07:40.217Z,7.6
2019-05-06T09:08:44.371Z,7.5
2019-05-06T09:09:45.135Z,7.5
2019-05-06T09:10:45.889Z,7.4
2019-05-06T09:11:46.649Z,7.3
2019-05-06T09:12:47.414Z,7.3
2019-05-06T09:13:48.236Z,7.3
2019-05-06T09:14:48.989Z,7.3
2019-05-06T09:15:49.758Z,7.3
2019-05-06T09:16:54.742Z,7.3
2019-05-06T09:17:55.535Z,7.2
2019-05-06T09:18:59.089Z,7.2
2019-05-06T09:19:59.849Z,7.1
2019-05-06T09:21:03.666Z,7
2019-05-06T09:23:05.455Z,6.9
2019-05-06T09:24:06.243Z,6.8
2019-05-06T09:25:07.004Z,6.7
2019-05-06T09:26:07.791Z,6.7
2019-05-06T09:27:08.550Z,6.7
2019-05-06T09:28:09.311Z,6.7
2019-05-06T09:29:15.170Z,6.7
2019-05-06T09:30:15.942Z,6.6
2019-05-06T09:31:16.714Z,6.6
2019-05-06T09:32:17.473Z,6.5
2019-05-06T09:33:18.247Z,6.4
2019-05-06T09:34:19.040Z,6.4
2019-05-06T09:35:21.730Z,6.4
2019-05-06T09:36:23.625Z,6.2
2019-05-06T09:37:55.105Z,6
2019-05-06T09:38:55.859Z,5.9
2019-05-06T09:39:59.421Z,5.9
2019-05-06T09:41:00.186Z,5.8
2019-05-06T09:42:05.242Z,5.8
2019-05-06T09:43:06.002Z,5.2
2019-05-06T09:44:06.756Z,5.2
2019-05-06T09:45:07.552Z,5.1
2019-05-06T09:46:08.319Z,5.1
2019-05-06T09:47:09.112Z,5.1
2019-05-06T09:48:12.608Z,4.9
2019-05-06T09:49:13.677Z,4.8
2019-05-06T09:51:17.741Z,4.6
2019-05-06T09:52:18.540Z,4.5
2019-05-06T09:53:19.282Z,4.5
2019-05-06T09:54:20.072Z,4.4
2019-05-06T09:55:23.806Z,4.3
2019-05-06T09:56:24.580Z,4.3
2019-05-06T09:57:25.540Z,4.3
2019-05-06T09:59:26.791Z,4.3
2019-05-06T10:00:35.189Z,4.3
2019-05-06T10:01:35.950Z,4.4
2019-05-06T10:02:36.719Z,4.5
2019-05-06T10:03:37.477Z,4.7
2019-05-06T10:04:38.247Z,4.8
2019-05-06T10:05:39.032Z,4.8
2019-05-06T10:06:54.953Z,4.9
2019-05-06T10:08:03.971Z,5
2019-05-06T10:09:05.826Z,5.2
2019-05-06T10:10:06.607Z,5.3
2019-05-06T10:11:08.164Z,5.3
2019-05-06T10:12:08.924Z,5.3
2019-05-06T10:13:09.685Z,5.4
2019-05-06T10:14:13.147Z,5.6
2019-05-06T10:15:13.912Z,5.6
2019-05-06T10:16:14.700Z,5.7
2019-05-06T10:17:15.465Z,5.8
2019-05-06T10:18:16.224Z,5.8
2019-05-06T10:19:17.012Z,5.7
2019-05-06T10:20:17.779Z,5.7
2019-05-06T10:21:23.557Z,5.7
2019-05-06T10:22:24.312Z,5.8
2019-05-06T10:23:25.084Z,5.9
2019-05-06T10:24:25.854Z,6
2019-05-06T10:25:26.614Z,6.1
2019-05-06T10:26:27.406Z,6.1
2019-05-06T10:27:28.164Z,6.1
2019-05-06T10:28:28.939Z,6.1
2019-05-06T10:29:29.724Z,6.1
2019-05-06T10:30:32.687Z,6.1
2019-05-06T10:31:36.744Z,6.1
2019-05-06T10:32:37.505Z,6
2019-05-06T10:33:38.275Z,6
2019-05-06T10:34:39.034Z,6
2019-05-06T10:35:39.795Z,6.1
2019-05-06T10:36:43.439Z,6.1
2019-05-06T10:37:44.203Z,6.1
2019-05-06T10:38:44.966Z,6.2
2019-05-06T10:39:45.726Z,6.2
2019-05-06T10:41:07.896Z,6.2
2019-05-06T10:42:14.102Z,6.3
2019-05-06T10:43:14.872Z,6.3
2019-05-06T10:44:15.631Z,6.3
2019-05-06T10:45:16.396Z,6.4
2019-05-06T10:46:17.162Z,6.5
2019-05-06T10:47:17.934Z,6.6
2019-05-06T10:48:18.689Z,6.6
2019-05-06T10:49:19.459Z,6.6
2019-05-06T10:50:23.654Z,6.6
2019-05-06T10:51:24.468Z,6.6
2019-05-06T10:52:26.049Z,6.7
2019-05-06T10:53:26.817Z,6.7
2019-05-06T10:54:27.574Z,6.7
2019-05-06T10:55:28.333Z,6.7
2019-05-06T10:56:29.096Z,6.6
2019-05-06T10:57:33.496Z,6.6
2019-05-06T10:58:34.260Z,6.6
2019-05-06T10:59:35.026Z,6.6
2019-05-06T11:00:35.780Z,6.6
2019-05-06T11:01:36.547Z,6.7
2019-05-06T11:02:40.157Z,6.7
2019-05-06T11:03:42.651Z,6.7
2019-05-06T11:04:43.422Z,6.7
2019-05-06T11:05:44.228Z,6.7
2019-05-06T11:06:45.000Z,6.7
2019-05-06T11:07:45.778Z,6.7
2019-05-06T11:08:46.542Z,6.7
2019-05-06T11:09:47.297Z,6.7
2019-05-06T11:10:48.067Z,6.7
2019-05-06T11:11:48.826Z,6.7
2019-05-06T11:12:54.370Z,6.7
2019-05-06T11:13:55.138Z,6.7
2019-05-06T11:14:56.502Z,6.7
2019-05-06T11:15:57.268Z,6.8
2019-05-06T11:16:58.035Z,6.8
2019-05-06T11:17:58.834Z,6.8
2019-05-06T11:18:59.587Z,6.9
2019-05-06T11:20:13.882Z,6.9
2019-05-06T11:22:15.366Z,6.9
2019-05-06T11:23:18.924Z,7
2019-05-06T11:24:19.698Z,6.9
2019-05-06T11:25:22.881Z,6.9
2019-05-06T11:26:24.464Z,6.9
2019-05-06T11:27:38.371Z,6.9
2019-05-06T11:28:45.904Z,7
2019-05-06T11:29:46.661Z,7
2019-05-06T11:30:47.436Z,6.9
2019-05-06T11:31:48.196Z,6.9
2019-05-06T11:32:48.951Z,6.9
2019-05-06T11:33:54.917Z,6.9
2019-05-06T11:34:55.677Z,6.9
2019-05-06T11:36:56.940Z,6.8
2019-05-06T11:37:57.696Z,6.9
2019-05-06T11:38:58.479Z,6.9
2019-05-06T11:39:59.256Z,6.9
2019-05-06T11:41:00.016Z,6.8
2019-05-06T11:42:35.755Z,6.8
2019-05-06T11:43:36.718Z,6.8
2019-05-06T11:44:44.790Z,6.9
2019-05-06T11:45:45.561Z,6.9
2019-05-06T11:46:46.327Z,6.9
2019-05-06T11:47:47.096Z,6.9
2019-05-06T11:48:47.854Z,6.9
2019-05-06T11:49:48.639Z,6.8
2019-05-06T11:50:49.395Z,6.8
2019-05-06T11:51:50.160Z,6.9
2019-05-06T11:52:56.460Z,6.9
2019-05-06T11:53:57.216Z,6.8
2019-05-06T11:54:58.772Z,6.8
2019-05-06T11:56:01.931Z,6.8
2019-05-06T11:57:03.662Z,6.9
2019-05-06T11:58:04.423Z,6.9
2019-05-06T11:59:05.192Z,7
2019-05-06T12:00:05.970Z,7
2019-05-06T12:01:06.737Z,7
2019-05-06T12:02:07.497Z,7
2019-05-06T12:03:08.284Z,7.1
2019-05-06T12:04:09.074Z,7.1
2019-05-06T12:05:14.539Z,7.1
2019-05-06T12:07:16.876Z,7.2
2019-05-06T12:08:17.658Z,7.1
2019-05-06T12:09:18.508Z,7.1
2019-05-06T12:10:23.178Z,7.1
2019-05-06T12:11:24.523Z,7.2
2019-05-06T12:12:25.279Z,7.2
2019-05-06T12:13:26.065Z,7.2
2019-05-06T12:14:26.833Z,7.2
2019-05-06T12:15:30.412Z,7.2
2019-05-06T12:16:34.117Z,7.3
2019-05-06T12:17:34.886Z,7.2
2019-05-06T12:18:35.650Z,7.3
2019-05-06T12:19:36.439Z,7.3
2019-05-06T12:20:37.238Z,7.2
2019-05-06T12:21:38.013Z,7.2
2019-05-06T12:22:38.770Z,7.3
2019-05-06T12:23:39.547Z,7.4
2019-05-06T12:24:45.148Z,7.4
2019-05-06T12:25:48.696Z,7.4
2019-05-06T12:26:49.451Z,7.4
2019-05-06T12:27:53.349Z,7.4
2019-05-06T12:28:56.791Z,7.4
2019-05-06T12:29:57.569Z,7.4
2019-05-06T12:30:58.350Z,7.5
2019-05-06T12:31:59.126Z,7.6
2019-05-06T12:32:59.890Z,7.6
2019-05-06T12:34:03.565Z,7.6
2019-05-06T12:35:04.334Z,7.6
2019-05-06T12:36:07.899Z,7.6
2019-05-06T12:37:08.675Z,7.6
2019-05-06T12:38:31.297Z,7.7
2019-05-06T12:39:33.805Z,7.7
2019-05-06T12:40:34.562Z,7.8
2019-05-06T12:41:35.349Z,7.7
2019-05-06T12:42:36.112Z,7.7
2019-05-06T12:43:36.889Z,7.7
2019-05-06T12:44:37.652Z,7.7
2019-05-06T12:45:38.419Z,7.7
2019-05-06T12:46:43.820Z,7.7
2019-05-06T12:47:44.571Z,7.7
2019-05-06T12:48:45.355Z,7.7
2019-05-06T12:49:46.117Z,7.8
2019-05-06T12:50:46.880Z,7.8
2019-05-06T12:51:47.698Z,7.9
2019-05-06T12:52:48.457Z,7.9
2019-05-06T12:53:49.210Z,7.8
2019-05-06T12:54:49.974Z,7.8
2019-05-06T12:55:54.374Z,7.9
2019-05-06T12:56:55.937Z,7.9
2019-05-06T12:57:56.690Z,7.8
2019-05-06T12:58:57.448Z,7.8
2019-05-06T12:59:58.217Z,7.9
2019-05-06T13:00:58.992Z,7.9
2019-05-06T13:02:02.399Z,7.9
2019-05-06T13:03:03.639Z,8
2019-05-06T13:04:05.584Z,8
2019-05-06T13:05:06.354Z,8
2019-05-06T13:06:12.715Z,8
2019-05-06T13:07:18.907Z,7.9
2019-05-06T13:08:35.961Z,8
2019-05-06T13:10:05.717Z,8
2019-05-06T13:11:06.481Z,8
2019-05-06T13:12:07.245Z,8
2019-05-06T13:13:08.029Z,8
2019-05-06T13:14:08.802Z,8
2019-05-06T13:15:09.551Z,8
2019-05-06T13:16:13.359Z,8.1
2019-05-06T13:17:14.140Z,8.1
2019-05-06T13:19:18.197Z,8.1
2019-05-06T13:20:18.981Z,8.1
2019-05-06T13:21:22.171Z,8.2
2019-05-06T13:22:25.219Z,8.3
2019-05-06T13:23:26.768Z,8.3
2019-05-06T13:24:27.623Z,8.3
2019-05-06T13:25:28.392Z,8.3
2019-05-06T13:26:29.158Z,8.3
2019-05-06T13:27:29.913Z,8.3
2019-05-06T13:28:36.065Z,8.2
2019-05-06T13:29:36.811Z,8.2
2019-05-06T13:30:37.596Z,8.3
2019-05-06T13:31:38.362Z,8.2
2019-05-06T13:32:39.121Z,8.2
2019-05-06T13:33:43.220Z,8.2
2019-05-06T13:34:45.879Z,8.2
2019-05-06T13:35:46.635Z,8.3
2019-05-06T13:36:47.535Z,8.3
2019-05-06T13:37:48.604Z,8.4
2019-05-06T13:39:15.445Z,8.3
2019-05-06T13:40:16.683Z,8.4
2019-05-06T13:41:17.921Z,8.4
2019-05-06T13:42:18.676Z,8.4
2019-05-06T13:43:19.441Z,8.5
2019-05-06T13:44:22.415Z,8.4
2019-05-06T13:45:23.661Z,8.4
2019-05-06T13:46:24.454Z,8.3
2019-05-06T13:47:25.197Z,8.2
2019-05-06T13:48:26.141Z,8.2
2019-05-06T13:49:28.197Z,8.1
2019-05-06T13:50:28.966Z,8.1
2019-05-06T13:51:32.114Z,8.1
2019-05-06T13:52:33.147Z,8.1
2019-05-06T13:53:46.518Z,8.1
2019-05-06T13:54:47.289Z,8.1
2019-05-06T13:55:48.030Z,8.1
2019-05-06T13:56:51.885Z,8.1
2019-05-06T13:57:53.103Z,8.1
2019-05-06T13:58:53.887Z,8
2019-05-06T14:00:07.442Z,8
2019-05-06T14:01:08.203Z,8
2019-05-06T14:02:09.531Z,8
2019-05-06T14:03:10.307Z,8.1
2019-05-06T14:04:13.539Z,8
2019-05-06T14:05:14.300Z,8
2019-05-06T14:06:15.067Z,8
2019-05-06T14:07:15.825Z,8
2019-05-06T14:08:16.592Z,8
2019-05-06T14:09:42.788Z,7.9
2019-05-06T14:11:02.666Z,7.9
2019-05-06T14:12:03.751Z,7.8
2019-05-06T14:13:04.511Z,7.9
2019-05-06T14:14:05.304Z,7.8
2019-05-06T14:15:06.069Z,7.8
2019-05-06T14:16:06.851Z,7.8
2019-05-06T14:17:07.605Z,7.8
2019-05-06T14:18:08.364Z,7.7
2019-05-06T14:19:09.153Z,7.7
2019-05-06T14:20:09.927Z,7.7
2019-05-06T14:21:15.948Z,7.7
2019-05-06T14:22:16.709Z,7.6
2019-05-06T14:23:17.472Z,7.6
2019-05-06T14:24:18.255Z,7.6
2019-05-06T14:25:24.029Z,7.5
2019-05-06T14:26:24.795Z,7.5
2019-05-06T14:28:26.055Z,7.5
2019-05-06T14:29:26.837Z,7.5
2019-05-06T14:30:27.602Z,7.5
2019-05-06T14:31:33.567Z,7.4
2019-05-06T14:32:34.309Z,7.4
2019-05-06T14:33:35.059Z,7.4
2019-05-06T14:34:35.854Z,7.4
2019-05-06T14:35:36.617Z,7.4
2019-05-06T14:36:37.373Z,7.3
2019-05-06T14:37:38.140Z,7.3
2019-05-06T14:38:38.898Z,7.2
2019-05-06T14:39:59.812Z,7.2
2019-05-06T14:41:08.899Z,7.2
2019-05-06T14:42:12.571Z,7.1
2019-05-06T14:43:14.132Z,7.1
2019-05-06T14:44:14.895Z,7
2019-05-06T14:45:15.715Z,7.1
2019-05-06T14:46:16.475Z,7.1
2019-05-06T14:47:17.240Z,7
2019-05-06T14:48:18.003Z,7
2019-05-06T14:49:18.761Z,7.1
2019-05-06T14:50:19.559Z,7.1
2019-05-06T14:51:22.626Z,7.2
2019-05-06T14:52:26.386Z,7.2
2019-05-06T14:53:27.143Z,7.3
2019-05-06T14:54:27.901Z,7.4
2019-05-06T14:55:29.781Z,7.4
2019-05-06T14:56:32.999Z,7.5
2019-05-06T14:57:33.759Z,7.5